»·PEaware :: AAL225 KSNA-KSFO

AAL225 :: KSNA-KSFO

FLIGHT INFORMATION

Flight Status: Arrived
Operator:
American Airlines
More flights by this operator :: More flights under this callsign
Pilot: Michael R. (16974)
Aircraft: BOEING 737-800
(B738)
More flights by this aircraft type
Origin: KSNA John Wayne-Orange Co
United States
Destination: KSFO San Francisco Intl
United States
More flights between these airports :: More routes between these airports
Route: +HHERO2 IKAYE RIZIN SPLNT STOKD SERFR SERFR3
File this flight plan on PilotEdge
Remarks:
Altitude:
(Current/Filed)
37,000ft
Speed:
(Current/Filed)
460kts
Departed: 06-May-18 02:03 PM
Arrived: 06-May-18 03:04 PM
Distance/Time
Traveled:
323nm/1:00
Distance/Time
To Go:
Arrived

Flight Plot

Page will automatically refresh every two minutes.

Flight plan parsing failed; only flown route is shown


Map Options




Map Legend


Flown Route
Filed Route
Departure Airport
Arrival Airport
Navaid (VOR, NDB)
Fix

Horizontal Profiles

Position Reports

Time Latitude Longitude Heading Altitude Ground
Speed
06-May-18 13:22 33.676512 -117.864198 117 64ft 0kts
06-May-18 13:23 33.676512 -117.864198 117 64ft 0kts
06-May-18 13:24 33.676512 -117.864198 117 64ft 0kts
06-May-18 13:25 33.676512 -117.864198 117 64ft 0kts
06-May-18 13:26 33.676512 -117.864198 117 64ft 0kts
06-May-18 13:27 33.676512 -117.864198 117 64ft 0kts
06-May-18 13:28 33.676512 -117.864198 117 64ft 0kts
06-May-18 13:29 33.676512 -117.864198 117 64ft 0kts
06-May-18 13:30 33.676512 -117.864198 117 64ft 0kts
06-May-18 13:31 33.676512 -117.864198 117 64ft 0kts
06-May-18 13:32 33.676512 -117.864198 117 64ft 0kts
06-May-18 13:33 33.676512 -117.864198 117 64ft 0kts
06-May-18 13:34 33.676512 -117.864198 117 64ft 0kts
06-May-18 13:35 33.676512 -117.864198 117 64ft 0kts
06-May-18 13:36 33.676512 -117.864198 117 64ft 0kts
06-May-18 13:37 33.676512 -117.864198 117 64ft 0kts
06-May-18 13:38 33.676512 -117.864198 117 64ft 0kts
06-May-18 13:39 33.676512 -117.864198 117 64ft 0kts
06-May-18 13:40 33.676512 -117.864198 117 64ft 0kts
06-May-18 13:41 33.676512 -117.864198 117 64ft 0kts
06-May-18 13:42 33.676512 -117.864198 117 64ft 0kts
06-May-18 13:43 33.676512 -117.864198 117 64ft 0kts
06-May-18 13:44 33.676512 -117.864198 117 64ft 0kts
06-May-18 13:45 33.676512 -117.864198 117 64ft 0kts
06-May-18 13:46 33.676512 -117.864198 117 64ft 0kts
06-May-18 13:47 33.676512 -117.864198 117 64ft 0kts
06-May-18 13:48 33.676512 -117.864198 117 64ft 0kts
06-May-18 13:49 33.676512 -117.864198 117 64ft 0kts
06-May-18 13:50 33.676512 -117.864198 117 64ft 0kts
06-May-18 13:51 33.676512 -117.864198 117 64ft 0kts
06-May-18 13:52 33.676512 -117.864198 117 64ft 0kts
06-May-18 13:53 33.676578 -117.864506 89 64ft 2kts
06-May-18 13:54 33.676291 -117.865100 28 64ft 2kts
06-May-18 13:55 33.676071 -117.865236 28 64ft 0kts
06-May-18 13:56 33.676071 -117.865235 28 64ft 0kts
06-May-18 13:57 33.676071 -117.865235 28 64ft 0kts
06-May-18 13:58 33.676123 -117.865203 26 64ft 2kts
06-May-18 13:59 33.678267 -117.863882 26 64ft 13kts
06-May-18 14:00 33.680635 -117.863028 299 64ft 0kts
06-May-18 14:01 33.680637 -117.863033 299 64ft 0kts
06-May-18 14:02 33.680887 -117.865533 208 64ft 7kts
06-May-18 14:03 33.649864 -117.885281 208 1227ft 184kts
06-May-18 14:03 33.600404 -117.897533 187 3287ft 252kts
06-May-18 14:05 33.531833 -117.943448 223 4995ft 262kts
06-May-18 14:06 33.479323 -118.002808 225 4998ft 259kts
06-May-18 14:07 33.443725 -118.072435 239 6744ft 269kts
06-May-18 14:08 33.409899 -118.152974 260 10025ft 289kts
06-May-18 14:08 33.423253 -118.234203 283 10657ft 317kts
06-May-18 14:09 33.450209 -118.335815 297 13930ft 332kts
06-May-18 14:10 33.495532 -118.433628 295 16935ft 342kts
06-May-18 14:11 33.555144 -118.522900 323 19561ft 364kts
06-May-18 14:12 33.640806 -118.590588 321 21888ft 374kts
06-May-18 14:13 33.724808 -118.659969 320 23912ft 384kts
06-May-18 14:14 33.813388 -118.733777 321 25854ft 393kts
06-May-18 14:15 33.903918 -118.809584 321 27542ft 403kts
06-May-18 14:16 33.996739 -118.887617 321 29055ft 412kts
06-May-18 14:17 34.089021 -118.965419 320 30755ft 411kts
06-May-18 14:18 34.165670 -119.052536 299 32065ft 402kts
06-May-18 14:19 34.227101 -119.171832 298 32065ft 431kts
06-May-18 14:20 34.290230 -119.294891 298 32061ft 432kts
06-May-18 14:21 34.353477 -119.418223 298 32060ft 432kts
06-May-18 14:22 34.416909 -119.538723 306 32044ft 436kts
06-May-18 14:23 34.501731 -119.644481 310 32058ft 439kts
06-May-18 14:24 34.586047 -119.748445 310 32066ft 438kts
06-May-18 14:25 34.670403 -119.852963 309 32086ft 438kts
06-May-18 14:26 34.755484 -119.958664 309 32093ft 439kts
06-May-18 14:27 34.840577 -120.064431 309 32093ft 439kts
06-May-18 14:28 34.925844 -120.170394 309 32128ft 438kts
06-May-18 14:29 35.011118 -120.276319 309 32127ft 439kts
06-May-18 14:30 35.096905 -120.382273 312 32125ft 440kts
06-May-18 14:31 35.181098 -120.476830 312 32092ft 440kts
06-May-18 14:32 35.271177 -120.577971 312 32094ft 441kts
06-May-18 14:33 35.357216 -120.674767 312 32104ft 440kts
06-May-18 14:34 35.447357 -120.776320 312 32102ft 441kts
06-May-18 14:35 35.541748 -120.872336 317 32065ft 445kts
06-May-18 14:37 35.640261 -120.963861 317 32065ft 445kts
06-May-18 14:38 35.738715 -121.055605 317 32064ft 445kts
06-May-18 14:39 35.837180 -121.147632 317 32062ft 444kts
06-May-18 14:40 35.935058 -121.239413 317 32063ft 444kts
06-May-18 14:41 36.033326 -121.331855 317 32062ft 445kts
06-May-18 14:42 36.128431 -121.413357 322 32152ft 447kts
06-May-18 14:43 36.227604 -121.490314 323 30544ft 442kts
06-May-18 14:44 36.328440 -121.568884 322 28035ft 418kts
06-May-18 14:45 36.423956 -121.643695 323 25504ft 401kts
06-May-18 14:46 36.513770 -121.714336 322 23136ft 386kts
06-May-18 14:47 36.602097 -121.784055 323 21139ft 362kts
06-May-18 14:48 36.688415 -121.852455 323 18874ft 365kts
06-May-18 14:49 36.777563 -121.907581 343 16810ft 372kts
06-May-18 14:50 36.875623 -121.933693 344 14837ft 351kts
06-May-18 14:51 36.968903 -121.960669 339 12748ft 342kts
06-May-18 14:52 37.057745 -121.995043 340 10781ft 328kts
06-May-18 14:53 37.134457 -122.024849 340 10206ft 277kts
06-May-18 14:54 37.207025 -122.053224 340 9152ft 278kts
06-May-18 14:55 37.279587 -122.081610 339 7956ft 266kts
06-May-18 14:56 37.349151 -122.108957 339 6479ft 252kts
06-May-18 14:57 37.413918 -122.132840 342 5259ft 240kts
06-May-18 14:58 37.478099 -122.154821 342 4061ft 240kts
06-May-18 14:59 37.538396 -122.185174 305 2991ft 230kts
06-May-18 15:00 37.565467 -122.248387 297 1968ft 169kts
06-May-18 15:01 37.583939 -122.292264 295 1166ft 132kts
06-May-18 15:02 37.601003 -122.332883 294 495ft 130kts
06-May-18 15:03 37.617188 -122.371642 297 15ft 116kts
06-May-18 15:04 37.619513 -122.379483 226 14ft 4kts
06-May-18 15:05 37.617854 -122.380651 256 14ft 0kts
06-May-18 15:06 37.617854 -122.380651 256 14ft 0kts
06-May-18 15:07 37.617854 -122.380651 256 14ft 0kts
06-May-18 15:08 37.617854 -122.380651 256 14ft 0kts
06-May-18 15:09 37.617854 -122.380651 256 14ft 0kts
06-May-18 15:10 37.617854 -122.380651 256 14ft 0kts
06-May-18 15:11 37.617855 -122.380651 256 14ft 0kts
06-May-18 15:12 37.617855 -122.380651 256 14ft 0kts
06-May-18 15:13 37.617854 -122.380651 256 14ft 0kts
06-May-18 15:14 37.617855 -122.380651 256 14ft 0kts
06-May-18 15:15 37.617854 -122.380651 256 14ft 0kts
06-May-18 15:16 37.617855 -122.380651 256 14ft 0kts
06-May-18 15:17 37.617854 -122.380651 256 14ft 0kts
06-May-18 15:18 37.617855 -122.380651 256 14ft 0kts

Navigation Log

Ident Type
Flight plan parsing failed, navigation log unavailable